Time;durP1;ratioP1;P1;durP2;ratioP2;P2;SDS_P1;SDS_P2;PMS_P1;PMS_P2;Temp;Humidity;BMP_temperature;BMP_pressure;BME280_temperature;BME280_humidity;BME280_pressure;Samples;Min_cycle;Max_cycle;Signal;HPM_P1;HPM_P2
2022/03/07 00:02:03;;;;;;;31.42;15.80;;;-0.30;91.80;;;;;;5072901;28;20027;-78
2022/03/07 00:04:29;;;;;;;33.88;15.05;;;-0.30;92.10;;;;;;5073580;28;20507;-78
2022/03/07 00:06:54;;;;;;;;;;;-0.20;92.10;;;;;;5073847;28;20028;-79
2022/03/07 00:09:20;;;;;;;31.08;14.80;;;-0.20;92.20;;;;;;5075907;28;19943;-78
2022/03/07 00:11:51;;;;;;;;;;;-0.10;91.60;;;;;;5086343;28;20028;-80
2022/03/07 00:14:17;;;;;;;33.90;15.43;;;0.00;91.50;;;;;;5090182;28;19905;-80
2022/03/07 00:16:43;;;;;;;;;;;0.00;91.00;;;;;;5080071;28;20074;-80
2022/03/07 00:19:08;;;;;;;34.88;16.65;;;0.00;90.90;;;;;;5079895;28;19927;-79
2022/03/07 00:21:34;;;;;;;;;;;0.20;91.10;;;;;;5081194;28;20050;-80
2022/03/07 00:24:00;;;;;;;30.35;13.88;;;0.20;90.50;;;;;;5086795;28;19916;-80
2022/03/07 00:26:26;;;;;;;26.30;13.77;;;0.30;90.40;;;;;;5084997;28;20043;-80
2022/03/07 00:28:52;;;;;;;;;;;0.30;90.00;;;;;;5087158;28;20068;-80
2022/03/07 00:31:20;;;;;;;23.15;12.07;;;0.20;89.80;;;;;;5094465;28;19911;-80
2022/03/07 00:33:46;;;;;;;22.00;10.60;;;0.50;89.90;;;;;;5095303;28;20060;-80
2022/03/07 00:36:12;;;;;;;21.95;10.95;;;0.40;89.60;;;;;;5083632;28;20044;-79
2022/03/07 00:38:38;;;;;;;;;;;0.40;89.50;;;;;;5089056;28;20024;-80
2022/03/07 00:41:04;;;;;;;18.58;10.00;;;0.50;89.70;;;;;;5086429;28;20311;-80
2022/03/07 00:43:29;;;;;;;;;;;0.50;89.50;;;;;;5088105;28;20035;-79
2022/03/07 00:45:55;;;;;;;23.08;9.85;;;0.50;90.00;;;;;;5078830;28;20338;-79
2022/03/07 00:48:21;;;;;;;;;;;0.50;90.00;;;;;;5081341;28;20486;-79
2022/03/07 00:50:50;;;;;;;21.25;11.18;;;0.50;89.40;;;;;;5082580;28;19908;-80
2022/03/07 00:53:26;;;;;;;29.58;13.85;;;0.50;89.30;;;;;;5085824;28;20024;-80
2022/03/07 00:55:53;;;;;;;;;;;0.40;88.20;;;;;;5087000;28;20035;-79
2022/03/07 00:58:19;;;;;;;24.00;12.90;;;0.50;88.50;;;;;;5087612;28;19919;-79
2022/03/07 01:00:45;;;;;;;24.58;13.32;;;0.50;88.10;;;;;;5080554;28;20405;-79
2022/03/07 01:03:11;;;;;;;;;;;0.50;88.20;;;;;;5082546;28;20028;-79
2022/03/07 01:05:38;;;;;;;29.05;13.63;;;0.50;90.20;;;;;;5080892;28;19944;-78
2022/03/07 01:08:04;;;;;;;26.88;13.68;;;0.50;90.50;;;;;;5089267;28;20032;-80
2022/03/07 01:10:30;;;;;;;25.98;14.35;;;0.40;90.30;;;;;;5089916;28;20043;-79
2022/03/07 01:12:56;;;;;;;;;;;0.40;90.80;;;;;;5090848;28;20029;-80
2022/03/07 01:15:22;;;;;;;25.58;13.52;;;0.40;91.20;;;;;;5092631;28;19908;-80
2022/03/07 01:17:48;;;;;;;;;;;0.30;91.40;;;;;;5094954;28;20040;-80
2022/03/07 01:20:14;;;;;;;25.45;12.63;;;0.20;92.10;;;;;;5094624;28;19980;-80
2022/03/07 01:22:43;;;;;;;30.90;14.35;;;0.20;91.90;;;;;;5093337;28;20037;-80
2022/03/07 01:25:10;;;;;;;31.42;14.52;;;0.20;91.90;;;;;;5094139;28;20040;-79
2022/03/07 01:27:36;;;;;;;27.60;13.48;;;0.10;91.90;;;;;;5092413;28;20032;-80
2022/03/07 01:30:03;;;;;;;;;;;0.00;92.20;;;;;;5086590;28;20044;-80
2022/03/07 01:32:29;;;;;;;27.55;13.57;;;0.00;92.80;;;;;;5084471;28;19908;-78
2022/03/07 01:34:54;;;;;;;26.80;14.00;;;-0.10;92.40;;;;;;5076415;28;20574;-78
2022/03/07 01:37:20;;;;;;;28.23;14.90;;;-0.10;92.40;;;;;;5076326;28;20513;-78
2022/03/07 01:39:46;;;;;;;;;;;-0.10;92.80;;;;;;5076681;28;20025;-78
2022/03/07 01:42:11;;;;;;;26.90;13.93;;;-0.10;93.80;;;;;;5076222;28;19909;-78
2022/03/07 01:44:37;;;;;;;;;;;-0.20;93.30;;;;;;5076667;28;20499;-79
2022/03/07 01:47:04;;;;;;;27.52;14.35;;;-0.20;93.70;;;;;;5076246;28;19968;-78
2022/03/07 01:49:30;;;;;;;32.20;14.82;;;-0.20;93.60;;;;;;5076136;28;20025;-79
2022/03/07 01:51:56;;;;;;;;;;;-0.30;93.70;;;;;;5076061;28;20546;-78
2022/03/07 01:54:22;;;;;;;23.70;12.48;;;-0.30;93.90;;;;;;5076279;28;19908;-79
2022/03/07 01:56:49;;;;;;;27.58;13.73;;;-0.50;94.00;;;;;;5075601;28;20497;-78
2022/03/07 01:59:24;;;;;;;27.25;14.35;;;-0.50;94.30;;;;;;5076503;28;20033;-78
2022/03/07 02:01:50;;;;;;;30.30;14.85;;;-0.50;95.10;;;;;;5076349;28;20029;-77
2022/03/07 02:04:16;;;;;;;30.73;15.65;;;-0.60;95.30;;;;;;5075392;28;20055;-78
2022/03/07 02:06:43;;;;;;;;;;;-0.70;95.90;;;;;;5076483;28;20490;-77
2022/03/07 02:09:09;;;;;;;29.10;13.80;;;-0.90;96.70;;;;;;5076330;28;19915;-78
2022/03/07 02:11:35;;;;;;;;;;;-0.80;96.50;;;;;;5075831;28;20052;-77
2022/03/07 02:14:18;;;;;;;30.48;14.63;;;-0.90;97.10;;;;;;5075490;28;19908;-78
2022/03/07 02:16:45;;;;;;;32.10;15.27;;;-0.80;97.40;;;;;;5076545;28;20453;-79
2022/03/07 02:19:12;;;;;;;30.80;15.23;;;-0.80;98.00;;;;;;5077192;28;20031;-78
2022/03/07 02:21:43;;;;;;;32.03;15.23;;;-0.80;98.50;;;;;;5080173;28;20016;-79
2022/03/07 02:24:09;;;;;;;30.38;14.15;;;-0.70;98.50;;;;;;5086289;28;20481;-80
2022/03/07 02:26:35;;;;;;;;;;;-0.70;98.40;;;;;;5084543;28;20054;-79
2022/03/07 02:29:01;;;;;;;31.55;15.07;;;-0.70;98.70;;;;;;5080113;28;20053;-78
2022/03/07 02:31:26;;;;;;;;;;;-0.50;97.90;;;;;;5082228;28;20030;-80
2022/03/07 02:33:52;;;;;;;29.95;13.93;;;-0.50;98.00;;;;;;5082710;28;20458;-79
2022/03/07 02:36:18;;;;;;;;;;;-0.50;98.10;;;;;;5086809;28;20021;-80
2022/03/07 02:38:48;;;;;;;26.17;13.77;;;-0.50;98.40;;;;;;5085768;28;19904;-79
2022/03/07 02:41:14;;;;;;;25.27;13.98;;;-0.40;97.80;;;;;;5075703;28;20359;-78
2022/03/07 02:43:39;;;;;;;;;;;-0.40;98.00;;;;;;5074930;28;20553;-78
2022/03/07 02:46:05;;;;;;;24.98;12.35;;;-0.40;98.40;;;;;;5075556;28;19912;-77
2022/03/07 02:48:32;;;;;;;24.55;13.07;;;-0.30;98.30;;;;;;5074052;28;20478;-78
2022/03/07 02:50:58;;;;;;;27.95;13.40;;;-0.40;98.50;;;;;;5074692;28;20036;-78
2022/03/07 02:53:25;;;;;;;26.25;13.00;;;-0.40;98.70;;;;;;5073522;28;20527;-78
2022/03/07 02:55:51;;;;;;;24.35;12.50;;;-0.40;98.70;;;;;;5073370;28;20473;-78
2022/03/07 02:58:17;;;;;;;;;;;-0.40;98.90;;;;;;5076031;28;20043;-78
2022/03/07 03:00:42;;;;;;;27.55;14.02;;;-0.50;98.80;;;;;;5079357;28;19904;-80
2022/03/07 03:03:08;;;;;;;;;;;-0.50;98.80;;;;;;5091125;28;20033;-80
2022/03/07 03:05:34;;;;;;;32.20;14.98;;;-0.60;99.40;;;;;;5081537;28;19904;-79
2022/03/07 03:08:00;;;;;;;36.13;17.73;;;-0.70;99.50;;;;;;5081365;28;20067;-78
2022/03/07 03:10:25;;;;;;;;;;;-0.60;99.70;;;;;;5086702;28;20024;-79
2022/03/07 03:12:51;;;;;;;36.20;15.57;;;-0.70;99.90;;;;;;5095432;28;19911;-77
2022/03/07 03:15:17;;;;;;;;;;;-0.70;99.90;;;;;;5086992;28;20024;-79
2022/03/07 03:17:44;;;;;;;35.90;15.27;;;-0.70;99.90;;;;;;5079292;28;19919;-79
2022/03/07 03:20:12;;;;;;;32.72;16.30;;;-0.70;99.90;;;;;;5079790;28;20473;-79
2022/03/07 03:22:44;;;;;;;30.73;15.40;;;-0.70;99.90;;;;;;5086093;28;20040;-79
2022/03/07 03:25:15;;;;;;;29.58;15.18;;;-0.70;99.90;;;;;;5083791;28;20082;-80
2022/03/07 03:27:43;;;;;;;28.08;14.20;;;-0.70;99.90;;;;;;5086171;28;20071;-79
2022/03/07 03:30:16;;;;;;;31.08;15.25;;;-0.70;99.90;;;;;;5069490;28;20028;-80
2022/03/07 03:32:42;;;;;;;25.83;14.75;;;-0.70;99.90;;;;;;5089455;28;20041;-79
2022/03/07 03:35:14;;;;;;;28.80;14.50;;;-0.70;99.90;;;;;;5087989;28;20039;-79
2022/03/07 03:37:44;;;;;;;28.65;13.45;;;-0.70;99.90;;;;;;5087801;28;20028;-79
2022/03/07 03:40:11;;;;;;;26.23;13.38;;;-0.70;99.90;;;;;;5088239;28;20051;-79
2022/03/07 03:42:37;;;;;;;25.63;13.43;;;-0.70;99.90;;;;;;5085697;28;20043;-79
2022/03/07 03:45:05;;;;;;;24.23;12.52;;;-0.60;99.90;;;;;;5085368;28;20024;-80
2022/03/07 03:47:39;;;;;;;28.65;13.82;;;-0.70;99.90;;;;;;5084112;28;20024;-79
2022/03/07 03:50:07;;;;;;;25.77;13.57;;;-0.70;99.90;;;;;;5080348;28;20534;-78
2022/03/07 03:52:33;;;;;;;27.88;14.75;;;-0.80;99.90;;;;;;5091590;28;20035;-80
2022/03/07 03:55:02;;;;;;;27.00;14.43;;;-0.70;99.90;;;;;;5094025;28;20029;-80
2022/03/07 03:57:28;;;;;;;25.75;13.38;;;-0.80;99.90;;;;;;5093874;28;20032;-79
2022/03/07 03:59:53;;;;;;;;;;;-0.70;99.90;;;;;;5085225;28;20027;-80
2022/03/07 04:02:19;;;;;;;25.83;12.65;;;-0.80;99.90;;;;;;5081771;28;20315;-79
2022/03/07 04:04:46;;;;;;;29.77;15.45;;;-0.80;99.90;;;;;;5083275;28;20035;-78
2022/03/07 04:07:14;;;;;;;34.45;15.80;;;-0.70;99.90;;;;;;5091109;28;20042;-79
2022/03/07 04:09:41;;;;;;;29.98;15.02;;;-0.70;99.90;;;;;;5080532;28;20063;-78
2022/03/07 04:12:07;;;;;;;;;;;-0.70;99.90;;;;;;5080811;28;20055;-77
2022/03/07 04:14:33;;;;;;;31.15;15.60;;;-0.60;99.90;;;;;;5075246;28;19908;-79
2022/03/07 04:16:59;;;;;;;;;;;-0.60;99.90;;;;;;5076168;28;20463;-78
2022/03/07 04:19:25;;;;;;;28.90;15.80;;;-0.50;99.90;;;;;;5075836;28;20331;-79
2022/03/07 04:21:52;;;;;;;35.70;17.40;;;-0.60;99.90;;;;;;5077232;28;20029;-78
2022/03/07 04:24:18;;;;;;;38.60;17.73;;;-0.50;99.90;;;;;;5075226;28;20101;-79
2022/03/07 04:26:44;;;;;;;;;;;-0.60;99.90;;;;;;5077780;28;20035;-79
2022/03/07 04:29:10;;;;;;;29.85;15.85;;;-0.60;99.90;;;;;;5077782;28;19904;-79
2022/03/07 04:31:38;;;;;;;36.53;17.23;;;-0.50;99.90;;;;;;5073959;28;20234;-78
2022/03/07 04:34:05;;;;;;;31.70;15.93;;;-0.60;99.90;;;;;;5072272;28;20056;-78
2022/03/07 04:36:32;;;;;;;31.60;16.25;;;-0.50;99.90;;;;;;5072634;28;20174;-78
2022/03/07 04:38:57;;;;;;;29.48;15.57;;;-0.60;99.90;;;;;;5074614;28;20052;-78
2022/03/07 04:41:23;;;;;;;;;;;-0.60;99.90;;;;;;5072076;28;20672;-78
2022/03/07 04:43:48;;;;;;;39.30;18.13;;;-0.60;99.90;;;;;;5073999;28;20380;-79
2022/03/07 04:46:14;;;;;;;;;;;-0.50;99.90;;;;;;5074573;28;20473;-79
2022/03/07 04:48:40;;;;;;;33.35;17.92;;;-0.60;99.90;;;;;;5073760;28;19915;-77
2022/03/07 04:51:05;;;;;;;;;;;-0.60;99.90;;;;;;5073013;28;20471;-78
2022/03/07 04:53:31;;;;;;;60.58;32.13;;;-0.60;99.90;;;;;;5073869;28;19927;-77
2022/03/07 04:55:57;;;;;;;;;;;-0.60;99.90;;;;;;5072839;28;20039;-78
2022/03/07 04:58:22;;;;;;;45.75;23.83;;;-0.60;99.90;;;;;;5072038;28;20373;-77
2022/03/07 05:00:48;;;;;;;;;;;-0.60;99.90;;;;;;5072915;28;20031;-77
2022/03/07 05:03:14;;;;;;;40.92;22.35;;;-0.60;99.90;;;;;;5070948;28;19904;-78
2022/03/07 05:05:39;;;;;;;;;;;-0.60;99.90;;;;;;5072816;28;20066;-78
2022/03/07 05:08:05;;;;;;;34.15;17.70;;;-0.60;99.90;;;;;;5075519;28;19939;-79
2022/03/07 05:10:31;;;;;;;29.45;14.30;;;-0.70;99.90;;;;;;5078082;28;20023;-78
2022/03/07 05:12:56;;;;;;;;;;;-0.70;99.90;;;;;;5076466;28;20067;-79
2022/03/07 05:15:22;;;;;;;36.63;17.17;;;-0.70;99.90;;;;;;5077446;28;19978;-78
2022/03/07 05:17:51;;;;;;;;;;;-0.70;99.90;;;;;;5077602;28;20033;-78
2022/03/07 05:20:17;;;;;;;43.13;19.65;;;-0.70;99.90;;;;;;5079412;28;19952;-77
2022/03/07 05:22:44;;;;;;;37.65;18.15;;;-0.70;99.90;;;;;;5077789;28;20170;-80
2022/03/07 05:25:12;;;;;;;40.28;19.25;;;-0.70;99.90;;;;;;5078157;28;20031;-79
2022/03/07 05:27:38;;;;;;;39.83;19.90;;;-0.70;99.90;;;;;;5077966;28;20034;-78
2022/03/07 05:30:06;;;;;;;38.65;19.30;;;-0.70;99.90;;;;;;5077318;28;20143;-79
2022/03/07 05:32:32;;;;;;;38.25;18.45;;;-0.70;99.90;;;;;;5079438;28;20437;-79
2022/03/07 05:34:58;;;;;;;43.10;19.30;;;-0.70;99.90;;;;;;5078216;28;20036;-78
2022/03/07 05:37:24;;;;;;;;;;;-0.60;99.90;;;;;;5079172;28;20029;-78
2022/03/07 05:39:50;;;;;;;33.70;17.73;;;-0.60;99.90;;;;;;5078228;28;19912;-79
2022/03/07 05:42:15;;;;;;;;;;;-0.50;99.90;;;;;;5079869;28;20506;-78
2022/03/07 05:44:41;;;;;;;33.33;17.75;;;-0.50;99.90;;;;;;5078427;28;19909;-78
2022/03/07 05:47:06;;;;;;;;;;;-0.40;99.90;;;;;;5084399;28;20032;-78
2022/03/07 05:49:32;;;;;;;53.13;24.33;;;-0.40;99.90;;;;;;5092994;28;19909;-79
2022/03/07 05:51:58;;;;;;;;;;;-0.30;99.90;;;;;;5086226;28;20040;-79
2022/03/07 05:54:23;;;;;;;64.47;29.23;;;-0.30;99.90;;;;;;5075826;28;20339;-79
2022/03/07 05:56:49;;;;;;;;;;;-0.20;99.90;;;;;;5075719;28;20702;-79
2022/03/07 05:59:14;;;;;;;49.53;25.55;;;-0.10;99.90;;;;;;5077321;28;20388;-78
2022/03/07 06:01:40;;;;;;;;;;;-0.10;99.90;;;;;;5075791;28;20055;-77
2022/03/07 06:04:05;;;;;;;48.72;23.35;;;-0.10;99.90;;;;;;5077485;28;19915;-78
2022/03/07 06:06:31;;;;;;;;;;;0.00;99.90;;;;;;5076528;28;20520;-78
2022/03/07 06:08:57;;;;;;;41.50;19.77;;;0.10;99.90;;;;;;5079334;28;20372;-78
2022/03/07 06:11:22;;;;;;;;;;;0.20;99.90;;;;;;5085370;28;20055;-78
2022/03/07 06:13:48;;;;;;;37.88;18.33;;;0.20;99.90;;;;;;5080387;28;19904;-78
2022/03/07 06:16:14;;;;;;;36.08;17.65;;;0.30;99.90;;;;;;5077885;28;20032;-79
2022/03/07 06:18:39;;;;;;;;;;;0.30;99.90;;;;;;5076724;28;20036;-78
2022/03/07 06:21:05;;;;;;;42.30;19.95;;;0.40;99.90;;;;;;5076909;28;19908;-79
2022/03/07 06:23:31;;;;;;;;;;;0.50;99.90;;;;;;5076415;28;20033;-78
2022/03/07 06:25:57;;;;;;;36.58;15.60;;;0.50;99.20;;;;;;5078467;28;20300;-78
2022/03/07 06:28:23;;;;;;;31.75;16.83;;;0.60;98.60;;;;;;5078105;28;20037;-79
2022/03/07 06:30:48;;;;;;;37.60;15.18;;;0.60;98.70;;;;;;5077035;28;20028;-77
2022/03/07 06:33:16;;;;;;;27.27;15.20;;;0.70;99.00;;;;;;5077592;28;20057;-80
2022/03/07 06:35:42;;;;;;;30.73;15.75;;;0.80;98.50;;;;;;5077143;28;20029;-78
2022/03/07 06:38:07;;;;;;;;;;;0.90;97.40;;;;;;5077644;28;20046;-79
2022/03/07 06:40:33;;;;;;;26.67;14.55;;;1.10;96.00;;;;;;5077624;28;19990;-78
2022/03/07 06:43:00;;;;;;;;;;;1.20;95.80;;;;;;5080197;28;20032;-79
2022/03/07 06:45:28;;;;;;;35.05;18.13;;;1.30;94.90;;;;;;5079437;28;19962;-79
2022/03/07 06:47:54;;;;;;;31.77;16.45;;;1.40;94.00;;;;;;5078600;28;20603;-79
2022/03/07 06:50:19;;;;;;;;;;;1.60;93.50;;;;;;5080873;28;20511;-79
2022/03/07 06:52:45;;;;;;;27.67;14.55;;;1.70;92.50;;;;;;5078512;28;19908;-78
2022/03/07 06:55:11;;;;;;;;;;;1.90;91.50;;;;;;5076827;28;20032;-79
2022/03/07 06:57:36;;;;;;;34.25;16.63;;;2.10;90.50;;;;;;5077185;28;19916;-79
2022/03/07 07:00:08;;;;;;;;;;;2.20;89.40;;;;;;5076366;28;20074;-78
2022/03/07 07:02:34;;;;;;;29.17;14.38;;;2.40;87.20;;;;;;5076649;28;19912;-79
2022/03/07 07:05:02;;;;;;;;;;;2.60;86.00;;;;;;5077529;28;20033;-80
2022/03/07 07:07:31;;;;;;;26.40;15.00;;;2.70;81.60;;;;;;5078033;28;20426;-79
2022/03/07 07:09:57;;;;;;;27.27;15.23;;;2.70;82.00;;;;;;5079601;28;20029;-79
2022/03/07 07:12:23;;;;;;;29.73;15.90;;;2.90;81.10;;;;;;5077367;28;20044;-79
2022/03/07 07:14:49;;;;;;;27.10;16.27;;;3.00;79.30;;;;;;5082287;28;20036;-78
2022/03/07 07:17:15;;;;;;;28.55;17.52;;;3.20;76.20;;;;;;5083665;28;20443;-79
2022/03/07 07:19:41;;;;;;;28.17;14.93;;;3.40;75.30;;;;;;5075030;28;20039;-78
2022/03/07 07:22:07;;;;;;;30.02;16.75;;;3.30;73.50;;;;;;5074437;28;20021;-79
2022/03/07 07:24:32;;;;;;;30.83;17.48;;;3.30;73.80;;;;;;5076468;28;20131;-79
2022/03/07 07:26:58;;;;;;;30.27;17.00;;;3.30;73.10;;;;;;5077385;28;20396;-79
2022/03/07 07:29:24;;;;;;;26.20;15.80;;;3.30;74.30;;;;;;5076333;28;20036;-78
2022/03/07 07:31:51;;;;;;;26.92;16.17;;;3.30;73.40;;;;;;5077190;28;20024;-79
2022/03/07 07:34:17;;;;;;;25.55;14.88;;;3.30;72.00;;;;;;5077213;28;20051;-80
2022/03/07 07:36:43;;;;;;;21.02;12.60;;;3.40;72.50;;;;;;5076545;28;20028;-80
2022/03/07 07:39:09;;;;;;;;;;;3.50;69.60;;;;;;5076228;28;20412;-79
2022/03/07 07:41:34;;;;;;;21.75;11.73;;;3.50;68.30;;;;;;5077530;28;20376;-80
2022/03/07 07:44:00;;;;;;;;;;;3.60;68.50;;;;;;5077156;28;20081;-79
2022/03/07 07:46:26;;;;;;;23.63;11.20;;;3.70;66.50;;;;;;5077488;28;19919;-80
2022/03/07 07:48:51;;;;;;;;;;;3.70;66.40;;;;;;5076020;28;20035;-79
2022/03/07 07:51:17;;;;;;;22.40;12.35;;;3.60;66.00;;;;;;5077469;28;19935;-79
2022/03/07 07:53:42;;;;;;;23.33;11.60;;;3.50;66.20;;;;;;5075239;28;20056;-78
2022/03/07 07:56:09;;;;;;;;;;;3.30;66.90;;;;;;5078249;28;20067;-79
2022/03/07 07:58:34;;;;;;;22.13;11.95;;;3.20;68.10;;;;;;5076390;28;20368;-79
2022/03/07 08:01:00;;;;;;;21.48;12.23;;;3.10;68.80;;;;;;5077250;28;20032;-79
2022/03/07 08:03:26;;;;;;;23.90;12.60;;;3.00;68.90;;;;;;5078979;28;20123;-79
2022/03/07 08:05:51;;;;;;;23.60;11.75;;;3.00;68.70;;;;;;5079115;28;20024;-79
2022/03/07 08:08:18;;;;;;;22.40;11.32;;;3.00;69.60;;;;;;5078820;28;20123;-79
2022/03/07 08:10:44;;;;;;;26.38;11.93;;;2.90;69.60;;;;;;5078940;28;20016;-78
2022/03/07 08:13:10;;;;;;;21.20;12.30;;;2.90;70.60;;;;;;5076882;28;20497;-79
2022/03/07 08:15:35;;;;;;;;;;;3.00;69.50;;;;;;5079188;28;20033;-77
2022/03/07 08:18:01;;;;;;;21.73;10.77;;;3.10;68.50;;;;;;5075622;28;19912;-79
2022/03/07 08:20:27;;;;;;;;;;;3.20;67.80;;;;;;5079233;28;20044;-79
2022/03/07 08:22:54;;;;;;;20.83;11.27;;;3.20;67.70;;;;;;5080277;28;19908;-79
2022/03/07 08:25:21;;;;;;;25.95;12.73;;;3.30;68.00;;;;;;5093230;28;20028;-79
2022/03/07 08:27:47;;;;;;;25.58;13.63;;;3.40;67.50;;;;;;5089959;28;20029;-79
2022/03/07 08:30:15;;;;;;;22.90;12.18;;;3.60;67.50;;;;;;5080885;28;20029;-79
2022/03/07 08:32:41;;;;;;;21.33;11.60;;;3.80;66.20;;;;;;5082393;28;20056;-80
2022/03/07 08:35:08;;;;;;;25.08;12.25;;;4.00;64.90;;;;;;5080292;28;20024;-79
2022/03/07 08:37:33;;;;;;;18.90;11.40;;;3.90;64.40;;;;;;5085396;28;20029;-79
2022/03/07 08:40:00;;;;;;;29.00;12.45;;;3.90;64.60;;;;;;5076563;28;20171;-79
2022/03/07 08:42:26;;;;;;;22.75;12.52;;;3.90;63.60;;;;;;5073351;28;20024;-77
2022/03/07 08:44:52;;;;;;;;;;;3.80;64.00;;;;;;5074670;28;20024;-80
2022/03/07 08:47:19;;;;;;;26.55;12.70;;;3.70;64.50;;;;;;5075040;28;19915;-79
2022/03/07 08:49:44;;;;;;;26.73;13.48;;;3.70;65.10;;;;;;5074825;28;20039;-80
2022/03/07 08:52:10;;;;;;;28.17;14.45;;;3.80;64.50;;;;;;5076157;28;20032;-80
2022/03/07 08:54:36;;;;;;;28.27;14.05;;;3.80;64.50;;;;;;5076477;28;20103;-79
2022/03/07 08:57:02;;;;;;;;;;;3.90;64.70;;;;;;5078336;28;20070;-80
2022/03/07 08:59:28;;;;;;;29.38;14.38;;;4.10;63.90;;;;;;5078244;28;19908;-80
2022/03/07 09:01:57;;;;;;;31.27;16.88;;;4.10;63.40;;;;;;5076798;28;20131;-79
2022/03/07 09:04:24;;;;;;;24.90;14.98;;;4.30;63.20;;;;;;5076707;28;20020;-80
2022/03/07 09:06:50;;;;;;;25.80;15.02;;;4.40;63.30;;;;;;5075745;28;20493;-79
2022/03/07 09:09:16;;;;;;;;;;;4.30;62.70;;;;;;5077048;28;20146;-78
2022/03/07 09:11:41;;;;;;;28.13;14.80;;;4.30;62.20;;;;;;5077880;28;19939;-79
2022/03/07 09:14:07;;;;;;;27.20;14.23;;;4.20;63.70;;;;;;5077858;28;20021;-78
2022/03/07 09:16:33;;;;;;;;;;;4.20;63.00;;;;;;5078987;28;20043;-79
2022/03/07 09:18:58;;;;;;;21.33;13.65;;;4.30;62.60;;;;;;5076497;28;19908;-79
2022/03/07 09:21:24;;;;;;;31.20;15.77;;;4.30;62.40;;;;;;5077650;28;20032;-80
2022/03/07 09:23:49;;;;;;;;;;;4.30;62.20;;;;;;5075992;28;20102;-80
2022/03/07 09:26:15;;;;;;;26.35;15.63;;;4.40;62.50;;;;;;5076376;28;19908;-79
2022/03/07 09:28:41;;;;;;;34.35;15.75;;;4.40;61.80;;;;;;5077072;28;20032;-80
2022/03/07 09:31:06;;;;;;;29.15;17.27;;;4.50;61.80;;;;;;5078439;28;20036;-79
2022/03/07 09:33:32;;;;;;;;;;;4.50;62.30;;;;;;5078896;28;20420;-79
2022/03/07 09:35:58;;;;;;;32.85;15.23;;;4.60;62.20;;;;;;5078282;28;19965;-79
2022/03/07 09:38:24;;;;;;;26.85;15.85;;;4.60;62.10;;;;;;5077491;28;20032;-79
2022/03/07 09:40:52;;;;;;;29.67;16.02;;;4.70;62.00;;;;;;5081984;28;20034;-79
2022/03/07 09:43:17;;;;;;;28.63;17.77;;;4.70;61.80;;;;;;5089529;28;20071;-79
2022/03/07 09:45:43;;;;;;;32.47;18.05;;;4.70;61.80;;;;;;5089955;28;20028;-79
2022/03/07 09:48:12;;;;;;;31.05;18.48;;;4.60;61.70;;;;;;5086398;28;20548;-79
2022/03/07 09:50:41;;;;;;;29.63;18.20;;;4.50;62.10;;;;;;5081635;28;20100;-79
2022/03/07 09:53:08;;;;;;;32.65;17.55;;;4.50;62.20;;;;;;5077282;28;20043;-80
2022/03/07 09:55:34;;;;;;;28.83;16.65;;;4.30;62.70;;;;;;5079298;28;20024;-79
2022/03/07 09:58:00;;;;;;;33.58;18.55;;;4.30;63.40;;;;;;5078819;28;20033;-79
2022/03/07 10:00:26;;;;;;;;;;;4.30;63.50;;;;;;5078900;28;20024;-79
2022/03/07 10:02:58;;;;;;;32.55;17.90;;;4.20;63.50;;;;;;5076399;28;19972;-79
2022/03/07 10:05:28;;;;;;;32.78;17.38;;;4.20;64.10;;;;;;5078115;28;20021;-79
2022/03/07 10:07:55;;;;;;;34.92;18.38;;;4.10;64.50;;;;;;5076087;28;20021;-79
2022/03/07 10:10:21;;;;;;;32.63;18.17;;;4.10;64.20;;;;;;5078199;28;20379;-79
2022/03/07 10:12:51;;;;;;;37.28;19.48;;;4.10;63.80;;;;;;5078926;28;20090;-79
2022/03/07 10:15:18;;;;;;;34.85;19.83;;;4.10;64.20;;;;;;5079450;28;20176;-78
2022/03/07 10:17:50;;;;;;;28.00;18.02;;;4.00;64.10;;;;;;5077735;28;20032;-80
2022/03/07 10:20:19;;;;;;;30.33;18.17;;;3.90;64.60;;;;;;5077097;28;20029;-79
2022/03/07 10:22:50;;;;;;;32.42;18.67;;;3.80;65.40;;;;;;5079534;28;20374;-78
2022/03/07 10:25:22;;;;;;;35.75;18.85;;;3.90;65.70;;;;;;5079974;28;20036;-80
2022/03/07 10:27:49;;;;;;;33.08;18.73;;;3.80;65.90;;;;;;5079735;28;20035;-78
2022/03/07 10:30:24;;;;;;;33.17;19.40;;;3.70;65.80;;;;;;5078004;28;20520;-80
2022/03/07 10:32:58;;;;;;;31.85;18.17;;;3.70;66.50;;;;;;5077430;28;20762;-79
2022/03/07 10:35:30;;;;;;;40.20;19.20;;;3.60;67.20;;;;;;5079264;28;20024;-79
2022/03/07 10:38:08;;;;;;;35.42;20.33;;;3.50;67.40;;;;;;5073346;28;20086;-79
2022/03/07 10:40:36;;;;;;;31.58;19.80;;;3.50;68.50;;;;;;5077617;28;20104;-79
2022/03/07 10:43:04;;;;;;;34.63;19.70;;;3.40;68.90;;;;;;5078938;28;20057;-81
2022/03/07 10:45:30;;;;;;;35.33;18.95;;;3.40;69.00;;;;;;5079817;28;20016;-79
2022/03/07 10:48:05;;;;;;;32.28;17.73;;;3.40;69.80;;;;;;5080964;28;20020;-79
2022/03/07 10:50:31;;;;;;;39.65;21.15;;;3.40;69.90;;;;;;5077993;28;20123;-78
2022/03/07 10:53:05;;;;;;;34.00;19.52;;;3.40;69.90;;;;;;5078302;28;20090;-79
2022/03/07 10:55:32;;;;;;;36.00;19.95;;;3.50;69.60;;;;;;5074132;28;20027;-80
2022/03/07 10:58:14;;;;;;;33.13;19.52;;;3.40;69.40;;;;;;5088792;28;20033;-79
2022/03/07 11:00:51;;;;;;;35.88;19.73;;;3.40;70.70;;;;;;5094636;28;20041;-77
2022/03/07 11:03:25;;;;;;;34.63;20.05;;;3.40;69.90;;;;;;5093215;28;20050;-79
2022/03/07 11:05:51;;;;;;;34.28;19.10;;;3.40;69.80;;;;;;5091133;28;20017;-78
2022/03/07 11:08:20;;;;;;;33.10;19.23;;;3.50;69.90;;;;;;5088110;28;20088;-78
2022/03/07 11:10:48;;;;;;;33.25;19.90;;;3.60;69.30;;;;;;5090008;28;20055;-79
2022/03/07 11:13:15;;;;;;;33.78;19.40;;;3.70;68.50;;;;;;5083337;28;20021;-80
2022/03/07 11:15:46;;;;;;;34.75;20.13;;;3.70;68.00;;;;;;5080391;28;20088;-78
2022/03/07 11:18:13;;;;;;;33.08;18.58;;;3.80;67.40;;;;;;5077430;28;20032;-81
2022/03/07 11:20:47;;;;;;;34.75;19.35;;;3.90;67.30;;;;;;5079008;28;20051;-80
2022/03/07 11:23:17;;;;;;;32.78;19.33;;;4.00;67.20;;;;;;5062007;28;20036;-79
2022/03/07 11:25:44;;;;;;;34.20;19.92;;;4.10;66.60;;;;;;5080395;28;20051;-79
2022/03/07 11:28:11;;;;;;;54.28;28.10;;;4.10;65.90;;;;;;5080726;28;20025;-78
2022/03/07 11:30:42;;;;;;;48.03;25.65;;;4.10;66.20;;;;;;5077819;28;20028;-79
2022/03/07 11:33:15;;;;;;;39.53;21.15;;;4.30;66.10;;;;;;5082999;28;20047;-80
2022/03/07 11:35:48;;;;;;;33.08;19.40;;;4.00;65.60;;;;;;5078156;28;20025;-80
2022/03/07 11:38:19;;;;;;;34.63;20.60;;;4.00;66.10;;;;;;5077928;28;20504;-80
2022/03/07 11:40:56;;;;;;;34.95;20.40;;;4.00;66.30;;;;;;5075871;28;20116;-80
2022/03/07 11:43:24;;;;;;;41.15;23.00;;;3.90;66.60;;;;;;5077853;28;20599;-79
2022/03/07 11:45:50;;;;;;;36.50;20.77;;;3.80;67.50;;;;;;5076179;28;20119;-79
2022/03/07 11:48:16;;;;;;;43.65;24.05;;;3.80;68.00;;;;;;5077832;28;20039;-80
2022/03/07 11:50:42;;;;;;;63.08;30.77;;;3.80;68.20;;;;;;5076656;28;20024;-80
2022/03/07 11:53:08;;;;;;;78.88;42.33;;;3.80;68.00;;;;;;5076964;28;20082;-79
2022/03/07 11:55:43;;;;;;;43.85;24.85;;;3.80;68.30;;;;;;5078942;28;20530;-79
2022/03/07 11:58:08;;;;;;;41.33;22.52;;;3.80;69.20;;;;;;5077708;28;20032;-79
2022/03/07 12:00:35;;;;;;;37.55;21.27;;;3.80;68.90;;;;;;5076793;28;20031;-79
2022/03/07 12:03:13;;;;;;;39.92;22.35;;;3.80;68.70;;;;;;5075080;28;20028;-79
2022/03/07 12:05:41;;;;;;;49.13;25.77;;;3.80;68.70;;;;;;5075490;28;20029;-79
2022/03/07 12:08:18;;;;;;;43.45;25.05;;;3.80;69.00;;;;;;5073810;28;20090;-79
2022/03/07 12:10:59;;;;;;;37.42;21.25;;;3.90;68.70;;;;;;5074821;28;20031;-79
2022/03/07 12:13:26;;;;;;;37.70;22.15;;;3.80;68.80;;;;;;5074013;28;20032;-80
2022/03/07 12:15:54;;;;;;;43.92;24.92;;;3.80;68.70;;;;;;5076739;28;20093;-79
2022/03/07 12:18:21;;;;;;;40.22;21.05;;;3.80;68.30;;;;;;5075679;28;20132;-79
2022/03/07 12:20:46;;;;;;;37.47;20.98;;;3.90;68.10;;;;;;5075568;28;20021;-79
2022/03/07 12:23:12;;;;;;;31.95;19.67;;;3.90;68.90;;;;;;5077843;28;20035;-79
2022/03/07 12:25:38;;;;;;;39.50;23.48;;;3.90;68.50;;;;;;5079728;28;20050;-78
2022/03/07 12:28:04;;;;;;;40.40;22.90;;;4.00;67.60;;;;;;5085702;28;20032;-79
2022/03/07 12:30:29;;;;;;;;;;;4.00;66.80;;;;;;5083642;28;20024;-79
2022/03/07 12:32:55;;;;;;;40.05;21.35;;;3.90;68.80;;;;;;5074497;28;19912;-80
2022/03/07 12:35:20;;;;;;;;;;;3.80;68.90;;;;;;5078548;28;20092;-79
2022/03/07 12:37:46;;;;;;;32.35;19.38;;;3.90;69.50;;;;;;5077762;28;20290;-79
2022/03/07 12:40:12;;;;;;;34.00;20.65;;;3.90;69.40;;;;;;5077168;28;20016;-79
2022/03/07 12:42:42;;;;;;;40.08;22.98;;;4.00;68.80;;;;;;5079015;28;20487;-79
2022/03/07 12:45:09;;;;;;;36.90;21.75;;;4.00;67.50;;;;;;5075446;28;20050;-79
2022/03/07 12:47:37;;;;;;;32.97;21.13;;;4.00;66.90;;;;;;5075768;28;20031;-79
2022/03/07 12:50:07;;;;;;;36.22;21.88;;;3.90;67.10;;;;;;5075405;28;20017;-80
2022/03/07 12:52:35;;;;;;;36.58;20.38;;;3.70;68.60;;;;;;5075960;28;20113;-79
2022/03/07 12:55:10;;;;;;;41.15;22.92;;;3.50;69.10;;;;;;5074630;28;20021;-79